Time;durP1;ratioP1;P1;durP2;ratioP2;P2;SDS_P1;SDS_P2;PMS_P1;PMS_P2;Temp;Humidity;BMP_temperature;BMP_pressure;BME280_temperature;BME280_humidity;BME280_pressure;Samples;Min_cycle;Max_cycle;Signal;HPM_P1;HPM_P2
2021/12/25 00:01:41;;;;;;;94.20;40.70;;;;;;;3.06;60.86;99302.08;117351;1185;23452;-57
2021/12/25 00:04:10;;;;;;;137.90;49.10;;;;;;;3.07;60.76;99310.05;117384;1183;22610;-58
2021/12/25 00:06:40;;;;;;;124.00;49.00;;;;;;;3.06;60.76;99313.35;117371;1185;21850;-57
2021/12/25 00:09:08;;;;;;;161.60;55.00;;;;;;;3.06;60.63;99314.22;117331;1180;23437;-57
2021/12/25 00:11:36;;;;;;;129.10;51.00;;;;;;;3.04;60.58;99320.10;117326;1184;23442;-58
2021/12/25 00:14:10;;;;;;;134.40;51.60;;;;;;;3.02;60.63;99320.27;117375;1183;21857;-57
2021/12/25 00:16:44;;;;;;;143.10;55.70;;;;;;;2.99;60.76;99321.13;117376;1186;23469;-57
2021/12/25 00:19:12;;;;;;;73.80;35.50;;;;;;;2.95;60.58;99318.70;117157;1181;24170;-58
2021/12/25 00:21:48;;;;;;;54.60;29.90;;;;;;;2.91;60.54;99323.89;117311;1185;23901;-57
2021/12/25 00:24:16;;;;;;;59.50;32.30;;;;;;;2.86;60.55;99329.59;117367;1180;22000;-57
2021/12/25 00:34:50;;;;;;;38.10;23.90;;;;;;;2.73;60.56;99344.63;117359;1184;22982;-57
2021/12/25 00:37:18;;;;;;;38.60;24.80;;;;;;;2.70;60.51;99347.91;117325;1184;22324;-58
2021/12/25 00:39:46;;;;;;;43.20;25.00;;;;;;;2.69;60.62;99344.27;117334;1181;21859;-57
2021/12/25 00:42:16;;;;;;;67.30;33.40;;;;;;;2.64;60.58;99338.90;117357;1183;23442;-58
2021/12/25 00:44:45;;;;;;;86.70;38.60;;;;;;;2.62;60.68;99336.64;117332;1186;23443;-57
2021/12/25 00:47:13;;;;;;;88.90;37.40;;;;;;;2.60;60.79;99335.08;117373;1182;23461;-58
2021/12/25 00:49:42;;;;;;;66.80;32.10;;;;;;;2.57;60.80;99331.60;117406;1184;22615;-57
2021/12/25 00:52:10;;;;;;;63.40;31.80;;;;;;;2.56;60.79;99331.59;117370;1183;22921;-57
2021/12/25 00:54:40;;;;;;;44.90;25.90;;;;;;;2.55;60.67;99330.54;117336;1185;21864;-57
2021/12/25 00:57:09;;;;;;;46.60;26.80;;;;;;;2.52;60.54;99335.05;117399;1182;22920;-58
2021/12/25 00:59:37;;;;;;;41.00;25.10;;;;;;;2.48;60.62;99336.41;117413;1183;23472;-57
2021/12/25 01:02:06;;;;;;;37.10;23.50;;;;;;;2.47;60.64;99322.73;117364;1185;23466;-57
2021/12/25 01:04:34;;;;;;;38.10;25.10;;;;;;;2.45;60.60;99319.25;117366;1182;24233;-57
2021/12/25 01:07:02;;;;;;;42.60;25.50;;;;;;;2.44;60.53;99313.52;117384;1184;23432;-57
2021/12/25 01:09:31;;;;;;;149.70;53.50;;;;;;;2.42;60.58;99308.35;117346;1177;23469;-57
2021/12/25 01:11:59;;;;;;;98.90;38.80;;;;;;;2.39;60.46;99303.83;117349;1183;21863;-57
2021/12/25 01:14:39;;;;;;;58.60;30.40;;;;;;;2.34;60.43;99297.23;117427;1185;22628;-57
2021/12/25 01:30:45;;;;;;;36.40;23.60;;;;;;;2.22;60.30;99312.06;116916;1188;21869;-57
2021/12/25 01:39:00;;;;;;;35.30;23.80;;;;;;;2.14;60.25;99324.67;117304;1181;23473;-58
2021/12/25 01:49:41;;;;;;;35.50;23.70;;;;;;;2.05;60.21;99329.64;117387;1185;23446;-57
2021/12/25 01:52:09;;;;;;;37.90;24.50;;;;;;;2.03;60.20;99332.05;117371;1185;21855;-58
2021/12/25 01:54:37;;;;;;;44.00;26.30;;;;;;;2.01;60.41;99327.71;117387;1182;23469;-57
2021/12/25 01:57:05;;;;;;;64.30;32.30;;;;;;;1.98;60.29;99328.21;117359;1184;24166;-58
2021/12/25 01:59:34;;;;;;;47.90;27.90;;;;;;;1.94;60.26;99330.09;117324;1182;21852;-57
2021/12/25 02:02:02;;;;;;;44.30;26.20;;;;;;;1.92;60.51;99327.66;117290;1186;22834;-57
2021/12/25 02:04:30;;;;;;;43.80;28.10;;;;;;;1.90;60.32;99331.80;117401;1185;21857;-57
2021/12/25 02:07:03;;;;;;;43.60;26.00;;;;;;;1.87;60.19;99339.22;117361;1181;23443;-58
2021/12/25 02:09:31;;;;;;;38.20;24.20;;;;;;;1.85;60.19;99340.24;117343;1185;23547;-58
2021/12/25 02:12:00;;;;;;;36.80;25.40;;;;;;;1.82;60.23;99335.90;117341;1183;21847;-57
2021/12/25 02:14:29;;;;;;;40.80;25.80;;;;;;;1.80;60.35;99339.86;117361;1186;21854;-57
2021/12/25 02:17:08;;;;;;;39.30;24.30;;;;;;;1.83;60.58;99338.84;117382;1185;21859;-58
2021/12/25 02:19:47;;;;;;;47.90;28.30;;;;;;;1.88;60.39;99337.33;117338;1185;22278;-57
2021/12/25 02:22:18;;;;;;;49.20;29.70;;;;;;;1.92;60.67;99335.80;117292;1185;23564;-57
2021/12/25 02:24:46;;;;;;;50.50;28.20;;;;;;;1.94;60.59;99332.70;117102;1186;21885;-58
2021/12/25 02:27:14;;;;;;;42.90;27.00;;;;;;;1.93;60.42;99326.29;117371;1183;21859;-58
2021/12/25 02:29:42;;;;;;;79.10;40.20;;;;;;;1.93;60.65;99328.36;117358;1184;23445;-57
2021/12/25 02:32:10;;;;;;;69.80;36.00;;;;;;;1.93;60.55;99326.29;117303;1184;23455;-59
2021/12/25 02:34:39;;;;;;;60.60;33.00;;;;;;;1.95;60.59;99323.36;117351;1182;22922;-57
2021/12/25 02:37:07;;;;;;;68.00;35.50;;;;;;;1.95;60.28;99327.69;117348;1185;22908;-57
2021/12/25 02:39:35;;;;;;;78.70;38.20;;;;;;;1.93;60.43;99325.23;117389;1183;21861;-57
2021/12/25 02:42:04;;;;;;;48.10;28.90;;;;;;;1.89;60.36;99316.76;117357;1185;24206;-57
2021/12/25 02:44:32;;;;;;;41.40;26.30;;;;;;;1.84;60.35;99315.15;117370;1185;23573;-57
2021/12/25 02:47:09;;;;;;;43.50;26.90;;;;;;;1.81;60.19;99314.95;117321;1183;22744;-56
2021/12/25 02:49:37;;;;;;;51.50;29.80;;;;;;;1.80;60.32;99313.73;117357;1185;22622;-58
2021/12/25 02:52:06;;;;;;;107.30;49.00;;;;;;;1.79;60.36;99318.06;117135;1184;23468;-56
2021/12/25 02:54:35;;;;;;;130.80;54.00;;;;;;;1.81;60.34;99327.77;117366;1185;23442;-57
2021/12/25 02:57:04;;;;;;;111.90;51.90;;;;;;;1.83;60.30;99326.91;117359;1180;23238;-58
2021/12/25 02:59:32;;;;;;;106.80;48.00;;;;;;;1.86;60.56;99332.64;117400;1185;21866;-57
2021/12/25 03:02:12;;;;;;;82.00;41.40;;;;;;;1.86;60.47;99330.40;117384;1183;22918;-57
2021/12/25 03:04:43;;;;;;;89.10;43.60;;;;;;;1.87;60.43;99336.27;117365;1184;21856;-57
2021/12/25 03:07:11;;;;;;;91.70;45.50;;;;;;;1.85;60.36;99337.99;117362;1186;21851;-57
2021/12/25 03:09:40;;;;;;;67.10;38.90;;;;;;;1.83;60.41;99345.77;117305;1185;24163;-57
2021/12/25 03:12:11;;;;;;;61.90;34.80;;;;;;;1.83;60.37;99347.66;117383;1182;22834;-57
2021/12/25 03:15:04;;;;;;;54.10;31.40;;;;;;;1.82;60.47;99349.04;117334;1183;22918;-57
2021/12/25 03:17:32;;;;;;;59.60;35.20;;;;;;;1.80;60.37;99344.70;117434;1182;22662;-58
2021/12/25 03:20:00;;;;;;;52.20;32.80;;;;;;;1.79;60.36;99347.12;117346;1183;22921;-58
2021/12/25 03:22:30;;;;;;;51.40;32.90;;;;;;;1.77;60.39;99346.08;117375;1182;23003;-57
2021/12/25 03:24:58;;;;;;;58.40;33.70;;;;;;;1.77;60.34;99346.08;117347;1182;23502;-58
2021/12/25 03:27:26;;;;;;;50.30;29.40;;;;;;;1.77;60.42;99341.05;117391;1185;23473;-57
2021/12/25 03:29:54;;;;;;;66.40;37.10;;;;;;;1.77;60.51;99349.02;117288;1186;22650;-56
2021/12/25 03:32:22;;;;;;;80.60;39.40;;;;;;;1.76;60.43;99353.52;117392;1183;23472;-57
2021/12/25 03:34:51;;;;;;;126.80;52.80;;;;;;;1.75;60.30;99350.39;117322;1184;22764;-57
2021/12/25 03:37:18;;;;;;;185.60;69.90;;;;;;;1.73;60.56;99358.34;117345;1184;21860;-56
2021/12/25 03:39:47;;;;;;;166.10;62.00;;;;;;;1.73;60.50;99360.59;117371;1186;23497;-56
2021/12/25 03:42:15;;;;;;;148.20;55.60;;;;;;;1.75;60.40;99361.12;117334;1185;21848;-57
2021/12/25 03:44:44;;;;;;;62.50;31.70;;;;;;;1.78;60.70;99362.16;117474;1185;23469;-56
2021/12/25 03:47:24;;;;;;;57.80;29.00;;;;;;;1.79;60.60;99359.74;117378;1183;21857;-57
2021/12/25 03:58:22;;;;;;;116.50;46.90;;;;;;;2.04;60.68;99362.16;117332;1189;23467;-57
2021/12/25 04:00:50;;;;;;;117.20;47.70;;;;;;;2.11;60.77;99362.73;117333;1185;22629;-58
2021/12/25 04:03:27;;;;;;;118.50;45.30;;;;;;;2.16;60.62;99370.38;117397;1184;22311;-57
2021/12/25 04:05:56;;;;;;;156.20;53.40;;;;;;;2.20;60.77;99373.34;117347;1185;21867;-57
2021/12/25 04:08:30;;;;;;;142.10;50.70;;;;;;;2.23;60.72;99374.04;117378;1185;22814;-59
2021/12/25 04:11:10;;;;;;;148.90;54.40;;;;;;;2.23;60.46;99377.67;117357;1185;22650;-58
2021/12/25 04:13:38;;;;;;;148.20;58.20;;;;;;;2.20;60.43;99384.08;117372;1185;23648;-56
2021/12/25 04:16:06;;;;;;;143.40;53.50;;;;;;;2.15;60.23;99386.30;117405;1180;23466;-57
2021/12/25 04:18:35;;;;;;;129.20;50.60;;;;;;;2.11;60.26;99391.10;117411;1182;22908;-58
2021/12/25 04:21:03;;;;;;;145.50;50.40;;;;;;;2.06;60.39;99389.00;117348;1185;23466;-58
2021/12/25 04:23:35;;;;;;;164.70;56.00;;;;;;;2.01;60.35;99389.14;117370;1185;23471;-57
2021/12/25 04:26:03;;;;;;;173.40;60.10;;;;;;;1.95;60.43;99396.02;117361;1185;21862;-58
2021/12/25 05:06:51;;;;;;;82.00;39.80;;;;;;;2.00;60.91;99433.60;117399;1184;23443;-57
2021/12/25 05:09:19;;;;;;;71.50;37.70;;;;;;;2.00;60.80;99438.11;117366;1185;24696;-57
2021/12/25 05:11:47;;;;;;;67.00;34.90;;;;;;;1.99;60.61;99440.34;117395;1184;22829;-57
2021/12/25 05:14:15;;;;;;;193.40;62.40;;;;;;;1.96;60.77;99444.48;117380;1185;23490;-57
2021/12/25 05:16:45;;;;;;;;;;;;;;;1.95;60.69;99451.91;117381;1184;22062;-57
2021/12/25 05:19:14;;;;;;;124.30;46.00;;;;;;;1.93;60.61;99458.30;117417;1184;24166;-58
2021/12/25 05:21:42;;;;;;;93.50;39.20;;;;;;;1.91;60.77;99462.60;117419;1185;23471;-58
2021/12/25 05:24:10;;;;;;;103.00;42.70;;;;;;;1.92;60.52;99462.27;117384;1183;23548;-58
2021/12/25 05:26:39;;;;;;;104.60;42.00;;;;;;;1.99;60.82;99465.09;117350;1184;21853;-57
2021/12/25 05:29:07;;;;;;;68.20;31.90;;;;;;;2.03;60.76;99466.52;117361;1185;23453;-58
2021/12/25 05:31:36;;;;;;;42.50;24.20;;;;;;;2.04;61.01;99469.29;117386;1182;21859;-58
2021/12/25 05:34:04;;;;;;;35.10;21.60;;;;;;;2.11;60.64;99473.33;117348;1185;22883;-58
2021/12/25 05:36:33;;;;;;;29.10;19.20;;;;;;;2.15;60.82;99480.27;117390;1183;23469;-58
2021/12/25 05:39:08;;;;;;;28.20;19.30;;;;;;;2.19;60.86;99481.88;117395;1185;21888;-57
2021/12/25 05:41:37;;;;;;;29.60;19.80;;;;;;;2.25;60.79;99484.66;117430;1182;22808;-56
2021/12/25 05:44:05;;;;;;;29.30;20.40;;;;;;;2.33;60.93;99484.21;117346;1185;23442;-56
2021/12/25 05:46:37;;;;;;;27.80;18.10;;;;;;;2.42;60.98;99489.29;117294;1185;21867;-57
2021/12/25 05:49:06;;;;;;;24.20;16.80;;;;;;;2.48;61.09;99487.76;117391;1185;23471;-58
2021/12/25 05:51:34;;;;;;;23.30;17.00;;;;;;;2.51;61.30;99491.77;117421;1184;23466;-57
2021/12/25 05:54:03;;;;;;;24.40;17.60;;;;;;;2.56;61.04;99500.11;117312;1183;23545;-57
2021/12/25 05:56:32;;;;;;;23.10;15.30;;;;;;;2.58;61.09;99504.63;117383;1185;23573;-58
2021/12/25 05:59:00;;;;;;;35.00;19.90;;;;;;;2.60;61.00;99512.09;117340;1186;23446;-56
2021/12/25 06:01:29;;;;;;;36.30;21.30;;;;;;;2.61;61.11;99513.83;117204;1186;22008;-57
2021/12/25 06:03:57;;;;;;;39.40;22.90;;;;;;;2.65;61.05;99516.27;117299;1186;22743;-57
2021/12/25 06:06:26;;;;;;;42.80;24.70;;;;;;;2.71;61.17;99512.48;117366;1185;22992;-57
2021/12/25 06:08:58;;;;;;;36.70;21.60;;;;;;;2.77;61.17;99513.23;117381;1181;23538;-58
2021/12/25 06:11:27;;;;;;;34.80;20.40;;;;;;;2.85;61.13;99521.59;117341;1184;23612;-58
2021/12/25 06:14:05;;;;;;;25.90;16.60;;;;;;;2.89;61.32;99526.10;117383;1183;23595;-57
2021/12/25 06:16:33;;;;;;;21.60;15.40;;;;;;;2.93;61.14;99526.13;117404;1181;22981;-57
2021/12/25 06:19:01;;;;;;;29.80;16.30;;;;;;;3.00;61.26;99529.45;117390;1179;21858;-58
2021/12/25 06:21:31;;;;;;;24.70;15.60;;;;;;;3.05;61.28;99534.34;117456;1182;23446;-58
2021/12/25 06:24:04;;;;;;;22.10;15.30;;;;;;;3.11;61.29;99534.54;117393;1186;21864;-56
2021/12/25 06:26:43;;;;;;;23.40;15.20;;;;;;;3.23;61.32;99536.85;117328;1185;22729;-58
2021/12/25 06:29:14;;;;;;;23.70;15.20;;;;;;;3.29;61.26;99541.55;117382;1184;21876;-58
2021/12/25 06:31:42;;;;;;;23.00;15.70;;;;;;;3.36;61.34;99545.73;117294;1180;22208;-57
2021/12/25 06:34:10;;;;;;;24.70;15.40;;;;;;;3.49;61.25;99551.52;117407;1185;22155;-56
2021/12/25 06:36:39;;;;;;;21.20;13.90;;;;;;;3.59;61.25;99559.35;117366;1184;22625;-58
2021/12/25 06:39:14;;;;;;;22.00;15.60;;;;;;;3.71;61.36;99557.29;117389;1185;23446;-57
2021/12/25 06:41:43;;;;;;;20.20;13.50;;;;;;;3.87;61.33;99561.32;117366;1186;21859;-58
2021/12/25 06:44:11;;;;;;;25.90;14.70;;;;;;;3.97;61.36;99564.63;117323;1188;24708;-59
2021/12/25 06:46:40;;;;;;;19.60;13.40;;;;;;;4.08;61.33;99565.86;117339;1186;21848;-59
2021/12/25 06:49:08;;;;;;;22.60;14.70;;;;;;;4.17;61.29;99568.65;117353;1186;23465;-57
2021/12/25 06:51:36;;;;;;;16.80;11.90;;;;;;;4.28;61.43;99575.26;117229;1185;23546;-58
2021/12/25 06:54:05;;;;;;;19.70;14.10;;;;;;;4.38;61.36;99572.48;117307;1187;23464;-59
2021/12/25 06:56:33;;;;;;;19.60;13.90;;;;;;;4.48;61.40;99578.20;117377;1186;23470;-58
2021/12/25 06:59:02;;;;;;;18.90;13.20;;;;;;;4.57;61.44;99581.16;117169;1182;23450;-56
2021/12/25 07:01:30;;;;;;;18.50;12.20;;;;;;;4.64;61.58;99583.75;117342;1186;21874;-56
2021/12/25 07:03:59;;;;;;;21.20;14.10;;;;;;;4.73;61.43;99584.61;117325;1185;23589;-58
2021/12/25 07:06:27;;;;;;;18.70;13.10;;;;;;;4.84;61.61;99584.27;117270;1188;24166;-55
2021/12/25 07:08:55;;;;;;;17.10;12.60;;;;;;;4.93;61.44;99584.06;117303;1185;23446;-58
2021/12/25 07:11:27;;;;;;;30.40;17.10;;;;;;;5.02;61.60;99582.14;117301;1182;23434;-58
2021/12/25 07:13:56;;;;;;;60.60;28.00;;;;;;;5.10;61.71;99584.02;117320;1186;24239;-58
2021/12/25 07:16:24;;;;;;;65.60;32.70;;;;;;;5.18;61.48;99586.09;117279;1183;24009;-58
2021/12/25 07:18:52;;;;;;;63.90;33.40;;;;;;;5.25;61.14;99585.55;117331;1183;23551;-58
2021/12/25 07:21:21;;;;;;;47.80;24.60;;;;;;;5.32;61.50;99591.44;117209;1182;23551;-57
2021/12/25 07:23:49;;;;;;;50.80;26.10;;;;;;;5.38;61.55;99587.59;117299;1185;22919;-58
2021/12/25 07:26:17;;;;;;;39.10;22.20;;;;;;;5.47;61.38;99590.86;117351;1183;22623;-58
2021/12/25 07:28:46;;;;;;;51.20;26.00;;;;;;;5.54;61.48;99591.70;117290;1185;21861;-59
2021/12/25 07:31:15;;;;;;;30.30;17.80;;;;;;;5.60;61.72;99595.68;117305;1184;23457;-56
2021/12/25 07:33:43;;;;;;;26.40;16.90;;;;;;;5.66;61.42;99593.91;117287;1186;21905;-59
2021/12/25 07:36:12;;;;;;;24.20;16.40;;;;;;;5.73;61.58;99597.89;117328;1185;23467;-56
2021/12/25 07:38:41;;;;;;;25.70;17.20;;;;;;;5.80;61.46;99596.45;117343;1180;21979;-59
2021/12/25 07:41:09;;;;;;;25.20;17.30;;;;;;;5.85;61.55;99594.33;117329;1186;23574;-59
2021/12/25 07:43:38;;;;;;;21.70;15.40;;;;;;;5.88;61.73;99599.90;117310;1183;23448;-58
2021/12/25 07:46:07;;;;;;;21.10;15.80;;;;;;;5.92;61.65;99606.66;117342;1186;21878;-57
2021/12/25 07:48:35;;;;;;;21.90;14.90;;;;;;;5.94;61.60;99613.44;117305;1183;23717;-57
2021/12/25 07:51:03;;;;;;;25.30;17.50;;;;;;;5.98;61.44;99618.11;117266;1183;23443;-57
2021/12/25 07:53:31;;;;;;;21.80;14.40;;;;;;;6.00;61.54;99618.65;117383;1185;23635;-56
2021/12/25 07:55:59;;;;;;;22.40;15.90;;;;;;;6.02;61.67;99619.69;117381;1185;23563;-56
2021/12/25 07:58:28;;;;;;;22.70;15.30;;;;;;;6.06;61.64;99618.80;117301;1186;21867;-56
2021/12/25 08:00:57;;;;;;;24.20;15.00;;;;;;;6.12;61.52;99622.95;117340;1185;23498;-56
2021/12/25 08:03:25;;;;;;;20.40;14.50;;;;;;;6.17;61.61;99619.44;117410;1184;21861;-59
2021/12/25 08:05:54;;;;;;;21.50;15.30;;;;;;;6.22;61.71;99624.44;117354;1185;23468;-59
2021/12/25 08:08:22;;;;;;;20.40;14.20;;;;;;;6.29;61.81;99627.71;117351;1185;21848;-60
2021/12/25 08:10:50;;;;;;;16.30;12.00;;;;;;;6.36;61.72;99629.77;117339;1184;23495;-56
2021/12/25 08:13:19;;;;;;;20.10;14.10;;;;;;;6.44;61.49;99632.48;117327;1181;21866;-57
2021/12/25 08:15:47;;;;;;;31.10;19.30;;;;;;;6.52;61.62;99637.14;117376;1189;21897;-57
2021/12/25 08:18:16;;;;;;;36.30;21.30;;;;;;;6.61;61.82;99638.11;117361;1185;23540;-58
2021/12/25 08:20:44;;;;;;;30.50;18.20;;;;;;;6.70;61.61;99639.44;117401;1184;21869;-56
2021/12/25 08:23:21;;;;;;;24.70;15.80;;;;;;;6.80;61.57;99639.35;117341;1182;23606;-57
2021/12/25 08:25:50;;;;;;;30.60;17.60;;;;;;;6.90;61.54;99639.95;117336;1185;21862;-55
2021/12/25 08:28:18;;;;;;;39.10;22.00;;;;;;;6.99;61.73;99640.40;117369;1182;21848;-55
2021/12/25 08:30:46;;;;;;;29.40;19.00;;;;;;;7.07;61.76;99640.67;117363;1182;23446;-58
2021/12/25 08:33:14;;;;;;;19.80;14.00;;;;;;;7.13;61.67;99642.54;117392;1185;22892;-56
2021/12/25 08:35:43;;;;;;;18.30;13.10;;;;;;;7.18;61.76;99647.55;117368;1184;21871;-58
2021/12/25 08:38:11;;;;;;;16.70;12.60;;;;;;;7.23;61.66;99641.91;117345;1185;22946;-56
2021/12/25 08:40:40;;;;;;;16.90;12.20;;;;;;;7.29;61.69;99641.66;117380;1184;24876;-58
2021/12/25 08:43:09;;;;;;;16.00;12.00;;;;;;;7.35;61.63;99639.33;117381;1182;23642;-58
2021/12/25 08:48:14;;;;;;;18.30;12.50;;;;;;;7.45;61.56;99638.53;117341;1183;24166;-58
2021/12/25 08:50:46;;;;;;;17.30;11.90;;;;;;;7.49;61.51;99639.36;117386;1185;21868;-56
2021/12/25 08:53:14;;;;;;;17.70;12.30;;;;;;;7.54;61.55;99629.69;117352;1185;24170;-58
2021/12/25 08:55:43;;;;;;;16.70;12.60;;;;;;;7.62;61.62;99626.80;117383;1185;23436;-56
2021/12/25 08:58:11;;;;;;;18.00;12.80;;;;;;;7.72;61.68;99623.38;117381;1185;21853;-57
2021/12/25 09:00:41;;;;;;;18.10;13.30;;;;;;;7.84;61.69;99623.20;117397;1185;21896;-56
2021/12/25 09:03:09;;;;;;;19.30;13.90;;;;;;;7.96;61.72;99622.52;117371;1185;22929;-58
2021/12/25 09:05:37;;;;;;;19.30;13.00;;;;;;;8.10;61.97;99622.16;117383;1182;24219;-56
2021/12/25 09:08:06;;;;;;;18.70;13.10;;;;;;;8.25;61.97;99618.27;117342;1185;23479;-59
2021/12/25 09:10:35;;;;;;;17.60;12.50;;;;;;;8.40;62.09;99611.73;117307;1186;21849;-57
2021/12/25 09:13:04;;;;;;;17.10;12.70;;;;;;;8.56;62.03;99606.29;117328;1180;22928;-58
2021/12/25 09:15:32;;;;;;;15.10;11.90;;;;;;;8.70;62.05;99602.91;117369;1186;23489;-57
2021/12/25 09:18:01;;;;;;;17.10;12.50;;;;;;;8.85;62.13;99603.34;117341;1185;24171;-57
2021/12/25 09:20:29;;;;;;;16.10;12.60;;;;;;;8.99;62.07;99608.37;117349;1185;21865;-58
2021/12/25 09:22:57;;;;;;;16.80;11.90;;;;;;;9.10;61.95;99616.73;117316;1185;21860;-58
2021/12/25 09:25:25;;;;;;;16.50;12.60;;;;;;;9.18;61.98;99622.89;117375;1185;21848;-58
2021/12/25 09:27:54;;;;;;;17.00;13.00;;;;;;;9.22;61.96;99627.19;117369;1183;23443;-59
2021/12/25 09:30:22;;;;;;;17.40;12.30;;;;;;;9.24;61.71;99625.56;117292;1182;22108;-57
2021/12/25 09:32:51;;;;;;;18.60;13.80;;;;;;;9.24;61.78;99626.98;117359;1185;23455;-58
2021/12/25 09:35:19;;;;;;;18.30;13.30;;;;;;;9.24;61.68;99633.98;117332;1186;22282;-58
2021/12/25 09:37:48;;;;;;;18.90;14.00;;;;;;;9.23;61.70;99633.83;117342;1186;21860;-58
2021/12/25 09:40:17;;;;;;;20.80;14.30;;;;;;;9.23;61.67;99637.14;117398;1185;21848;-57
2021/12/25 09:42:45;;;;;;;18.10;13.50;;;;;;;9.26;61.62;99633.59;117355;1182;23564;-57
2021/12/25 09:45:13;;;;;;;21.40;15.30;;;;;;;9.28;61.66;99638.63;117358;1185;21861;-58
2021/12/25 09:47:42;;;;;;;20.40;15.30;;;;;;;9.30;61.62;99642.96;117341;1182;22924;-58
2021/12/25 09:50:10;;;;;;;20.70;15.10;;;;;;;9.30;61.66;99642.77;117383;1185;22354;-58
2021/12/25 09:52:39;;;;;;;22.40;15.60;;;;;;;9.31;61.64;99636.99;117348;1185;21909;-57
2021/12/25 09:55:07;;;;;;;19.60;14.50;;;;;;;9.30;61.56;99634.73;117393;1183;22916;-57
2021/12/25 09:57:36;;;;;;;19.00;14.60;;;;;;;9.27;61.55;99637.08;117354;1185;21903;-58
2021/12/25 10:00:13;;;;;;;18.90;14.30;;;;;;;9.23;61.53;99643.44;117293;1185;24152;-58
2021/12/25 10:02:46;;;;;;;18.70;14.60;;;;;;;9.19;61.58;99641.25;117335;1185;23566;-57
2021/12/25 10:05:24;;;;;;;18.60;13.70;;;;;;;9.18;61.53;99634.08;117378;1185;22629;-57
2021/12/25 10:08:11;;;;;;;20.20;13.70;;;;;;;9.15;61.57;99628.37;117287;1186;23563;-57
2021/12/25 10:10:41;;;;;;;20.50;15.10;;;;;;;9.12;61.51;99614.40;117160;1186;23473;-58
2021/12/25 10:13:22;;;;;;;;;;;;;;;9.09;61.55;99608.85;117346;1182;21905;-58
2021/12/25 10:15:52;;;;;;;21.60;15.10;;;;;;;9.08;61.50;99610.46;117329;1186;22916;-58
2021/12/25 10:18:34;;;;;;;21.50;14.80;;;;;;;9.07;61.68;99610.13;117338;1185;21912;-59
2021/12/25 10:21:25;;;;;;;18.50;14.30;;;;;;;9.10;61.60;99602.72;117364;1185;21857;-59
2021/12/25 10:24:07;;;;;;;18.40;14.40;;;;;;;9.13;61.63;99594.96;117357;1185;21859;-58
2021/12/25 10:26:37;;;;;;;18.30;14.50;;;;;;;9.16;61.62;99596.32;117304;1190;23463;-58
2021/12/25 10:29:23;;;;;;;21.80;15.10;;;;;;;9.18;61.71;99593.98;117317;1188;23559;-59
2021/12/25 10:31:54;;;;;;;18.90;14.50;;;;;;;9.21;61.75;99598.14;117353;1185;22919;-58
2021/12/25 10:34:23;;;;;;;17.60;13.00;;;;;;;9.23;61.61;99601.61;117360;1185;21857;-59
2021/12/25 10:36:52;;;;;;;18.50;14.10;;;;;;;9.24;61.69;99598.44;117355;1185;23007;-60
2021/12/25 10:39:23;;;;;;;17.50;12.90;;;;;;;9.27;61.79;99601.90;117372;1184;23472;-58
2021/12/25 10:41:54;;;;;;;17.20;13.30;;;;;;;9.31;61.77;99599.88;117484;1183;21874;-58
2021/12/25 10:44:31;;;;;;;19.40;13.50;;;;;;;9.34;61.78;99598.94;117375;1185;21912;-58
2021/12/25 10:47:05;;;;;;;18.50;14.30;;;;;;;9.37;61.71;99592.58;117385;1186;21970;-59
2021/12/25 10:49:50;;;;;;;17.90;13.80;;;;;;;9.42;61.68;99596.00;117358;1185;21904;-59
2021/12/25 10:52:27;;;;;;;23.20;15.40;;;;;;;9.45;61.66;99595.05;117347;1185;21946;-59
2021/12/25 10:55:25;;;;;;;20.40;14.70;;;;;;;9.48;61.69;99594.98;117355;1185;22918;-59
2021/12/25 10:57:57;;;;;;;21.10;15.30;;;;;;;9.50;61.65;99594.41;116822;1189;21851;-62
2021/12/25 11:00:29;;;;;;;19.50;14.00;;;;;;;9.50;61.71;99590.04;116850;1188;22611;-59
2021/12/25 11:03:06;;;;;;;19.80;15.10;;;;;;;9.50;61.57;99592.13;116898;1188;24248;-59
2021/12/25 11:05:39;;;;;;;20.50;14.60;;;;;;;9.42;61.79;99597.74;116906;1188;21865;-57
2021/12/25 11:08:12;;;;;;;19.50;13.60;;;;;;;9.37;61.84;99601.35;116851;1186;23459;-61
2021/12/25 11:10:56;;;;;;;18.60;14.80;;;;;;;9.38;61.76;99606.21;116855;1186;21868;-61
2021/12/25 11:13:26;;;;;;;20.20;14.80;;;;;;;9.36;61.75;99599.42;116927;1186;21864;-58
2021/12/25 11:16:03;;;;;;;19.30;14.20;;;;;;;9.36;61.66;99604.32;116895;1188;21863;-60
2021/12/25 11:18:49;;;;;;;19.70;14.50;;;;;;;9.37;61.71;99606.41;116942;1186;23563;-61
2021/12/25 11:21:17;;;;;;;18.90;14.10;;;;;;;9.30;61.78;99613.02;116908;1189;21891;-58
2021/12/25 11:23:46;;;;;;;19.50;14.10;;;;;;;9.26;61.82;99625.55;116894;1189;23577;-58
2021/12/25 11:26:14;;;;;;;19.30;14.30;;;;;;;9.27;61.94;99649.85;116734;1190;22926;-58
2021/12/25 11:28:43;;;;;;;19.00;14.70;;;;;;;9.33;61.90;99655.86;116877;1189;23907;-58
2021/12/25 11:31:11;;;;;;;18.30;14.40;;;;;;;9.36;61.81;99639.88;116960;1189;21867;-58
2021/12/25 11:33:40;;;;;;;22.70;15.50;;;;;;;9.35;61.88;99649.69;117050;1189;23505;-61
2021/12/25 11:36:08;;;;;;;23.80;16.30;;;;;;;9.39;61.85;99652.42;117191;1188;21868;-58
2021/12/25 11:38:36;;;;;;;21.60;14.40;;;;;;;9.45;61.87;99649.52;117375;1186;23493;-62
2021/12/25 11:41:09;;;;;;;22.80;15.00;;;;;;;9.47;61.78;99655.61;117426;1183;22992;-58
2021/12/25 11:43:41;;;;;;;20.50;13.80;;;;;;;9.51;61.74;99662.70;117243;1183;23569;-58
2021/12/25 11:46:10;;;;;;;17.90;12.60;;;;;;;9.57;61.88;99660.14;117315;1185;22982;-60
2021/12/25 11:48:39;;;;;;;20.50;14.20;;;;;;;9.63;61.91;99663.17;117343;1185;23442;-62
2021/12/25 11:51:28;;;;;;;22.00;15.30;;;;;;;9.70;61.98;99657.09;117278;1182;21848;-61
2021/12/25 11:56:43;;;;;;;21.70;16.40;;;;;;;9.94;62.30;99653.08;117380;1182;23441;-61
2021/12/25 11:59:14;;;;;;;21.90;15.20;;;;;;;10.04;62.26;99650.59;117282;1186;21874;-60
2021/12/25 12:01:48;;;;;;;18.90;14.70;;;;;;;10.15;62.30;99648.42;117390;1185;21849;-60
2021/12/25 12:04:21;;;;;;;19.30;15.30;;;;;;;10.33;62.47;99651.52;117365;1185;21857;-61
2021/12/25 12:06:53;;;;;;;19.10;14.60;;;;;;;10.53;62.66;99659.86;117302;1186;23573;-62
2021/12/25 12:09:22;;;;;;;20.20;14.30;;;;;;;10.66;62.41;99653.95;117314;1185;21856;-62
2021/12/25 12:12:12;;;;;;;22.00;17.60;;;;;;;10.74;62.40;99652.35;117356;1185;21871;-62
2021/12/25 12:14:40;;;;;;;19.30;14.30;;;;;;;10.79;62.22;99648.73;117309;1186;24148;-62
2021/12/25 12:17:26;;;;;;;20.50;13.90;;;;;;;10.79;62.13;99654.85;117380;1185;24702;-58
2021/12/25 12:19:55;;;;;;;21.30;16.00;;;;;;;10.77;61.88;99650.69;117246;1182;21873;-58
2021/12/25 12:27:34;;;;;;;25.70;18.40;;;;;;;10.48;61.76;99668.75;117289;1186;22511;-59
2021/12/25 12:30:25;;;;;;;25.80;19.10;;;;;;;10.38;61.96;99673.52;117314;1186;21835;-59
2021/12/25 12:32:54;;;;;;;23.80;17.00;;;;;;;10.26;61.98;99673.06;117108;1186;22461;-58
2021/12/25 12:35:35;;;;;;;28.80;19.70;;;;;;;10.21;61.93;99677.73;117279;1186;24179;-58
2021/12/25 12:38:26;;;;;;;23.00;16.90;;;;;;;10.17;61.87;99675.91;117378;1185;21857;-58
2021/12/25 12:41:12;;;;;;;;;;;;;;;10.11;61.80;99684.80;117354;1186;21872;-59
2021/12/25 12:44:05;;;;;;;23.80;17.80;;;;;;;10.06;61.87;99687.02;117383;1186;23585;-59
2021/12/25 12:46:50;;;;;;;19.90;14.90;;;;;;;10.03;61.76;99692.52;117308;1182;23497;-59
2021/12/25 12:49:22;;;;;;;24.20;16.40;;;;;;;10.00;61.66;99699.04;117281;1185;21857;-59
2021/12/25 12:52:20;;;;;;;22.70;16.10;;;;;;;9.92;61.71;99697.12;117269;1183;23622;-59
2021/12/25 12:54:55;;;;;;;18.80;14.10;;;;;;;9.87;61.70;99698.80;117284;1185;23452;-59
2021/12/25 12:57:28;;;;;;;22.60;15.70;;;;;;;9.78;61.73;99702.99;117290;1186;21874;-59
2021/12/25 13:00:08;;;;;;;26.80;17.00;;;;;;;9.71;61.78;99708.74;117358;1182;21859;-59
2021/12/25 13:02:40;;;;;;;;;;;;;;;9.67;61.86;99710.39;117402;1185;23451;-58
2021/12/25 13:05:44;;;;;;;26.40;19.50;;;;;;;9.63;61.87;99711.36;117339;1185;24225;-59
2021/12/25 13:08:16;;;;;;;;;;;;;;;9.54;61.75;99706.26;117328;1189;22819;-57